Wetterdaten: Woche 22.04.13 - 28.04.13 (KW17)
Datum Zeit Temp. Aussen +5cm Feuchte Auss Luftdruck Regen Sonnenschein Regendauer UV Solar Windben
22.04.2013 00:00 10,0 C 8,6 C 73 % 1016,6 hPa 0,0 l/m 0,00 h 0,00 h 0,0 UV-I 0 W/m 6,8 km/h (2 Bft)
22.04.2013 01:00 9,2 C 7,8 C 73 % 1016,6 hPa 0,0 l/m 0,00 h 0,00 h 0,0 UV-I 0 W/m 3,4 km/h (1 Bft)
22.04.2013 02:00 8,8 C 7,1 C 74 % 1016,5 hPa 0,0 l/m 0,00 h 0,00 h 0,0 UV-I 0 W/m 0,0 km/h (0 Bft)
22.04.2013 03:00 8,4 C 6,7 C 76 % 1016,4 hPa 0,0 l/m 0,00 h 0,00 h 0,0 UV-I 0 W/m 0,1 km/h (0 Bft)
22.04.2013 04:00 7,9 C 6,3 C 75 % 1016,4 hPa 0,0 l/m 0,00 h 0,00 h 0,0 UV-I 0 W/m 0,0 km/h (0 Bft)
22.04.2013 05:00 7,2 C 4,8 C 74 % 1016,6 hPa 0,0 l/m 0,00 h 0,00 h 0,0 UV-I 0 W/m 0,0 km/h (0 Bft)
22.04.2013 06:00 5,7 C 2,8 C 77 % 1017,0 hPa 0,0 l/m 0,00 h 0,00 h 0,0 UV-I 8 W/m 0,0 km/h (0 Bft)
22.04.2013 07:00 4,4 C 2,8 C 82 % 1017,3 hPa 0,0 l/m 0,00 h 0,00 h 0,0 UV-I 29 W/m 0,0 km/h (0 Bft)
22.04.2013 08:00 5,0 C 5,0 C 83 % 1017,5 hPa 0,0 l/m 0,00 h 0,00 h 0,0 UV-I 58 W/m 0,3 km/h (0 Bft)
22.04.2013 09:00 8,3 C 10,1 C 70 % 1017,8 hPa 0,0 l/m 0,57 h 0,00 h 0,5 UV-I 260 W/m 3,9 km/h (1 Bft)
22.04.2013 10:00 11,2 C 16,4 C 61 % 1017,8 hPa 0,0 l/m 0,83 h 0,00 h 1,0 UV-I 414 W/m 4,7 km/h (1 Bft)
22.04.2013 11:00 13,0 C 15,4 C 57 % 1017,6 hPa 0,0 l/m 0,77 h 0,00 h 1,8 UV-I 530 W/m 7,6 km/h (2 Bft)
22.04.2013 12:00 14,3 C 19,3 C 53 % 1017,3 hPa 0,0 l/m 1,00 h 0,00 h 2,4 UV-I 675 W/m 9,2 km/h (2 Bft)
22.04.2013 13:00 15,5 C 18,7 C 46 % 1017,0 hPa 0,0 l/m 1,00 h 0,00 h 3,0 UV-I 742 W/m 10,6 km/h (2 Bft)
22.04.2013 14:00 16,7 C 16,9 C 40 % 1016,6 hPa 0,0 l/m 1,00 h 0,00 h 3,0 UV-I 741 W/m 8,7 km/h (2 Bft)
22.04.2013 15:00 17,3 C 16,8 C 37 % 1016,1 hPa 0,0 l/m 1,00 h 0,00 h 2,4 UV-I 681 W/m 9,6 km/h (2 Bft)
22.04.2013 16:00 17,9 C 16,8 C 35 % 1015,6 hPa 0,0 l/m 1,00 h 0,00 h 1,6 UV-I 585 W/m 9,6 km/h (2 Bft)
22.04.2013 17:00 17,8 C 16,2 C 33 % 1015,4 hPa 0,0 l/m 0,97 h 0,00 h 0,8 UV-I 396 W/m 10,1 km/h (2 Bft)
22.04.2013 18:00 17,0 C 15,1 C 34 % 1015,4 hPa 0,0 l/m 0,30 h 0,00 h 0,0 UV-I 173 W/m 8,0 km/h (2 Bft)
22.04.2013 19:00 15,7 C 13,2 C 36 % 1015,7 hPa 0,0 l/m 0,07 h 0,00 h 0,0 UV-I 42 W/m 3,6 km/h (1 Bft)
22.04.2013 20:00 13,9 C 10,3 C 42 % 1016,0 hPa 0,0 l/m 0,00 h 0,00 h 0,0 UV-I 11 W/m 0,0 km/h (0 Bft)
22.04.2013 21:00 12,3 C 8,8 C 45 % 1016,2 hPa 0,0 l/m 0,00 h 0,00 h 0,0 UV-I 0 W/m 0,1 km/h (0 Bft)
22.04.2013 22:00 11,2 C 8,5 C 49 % 1016,6 hPa 0,0 l/m 0,00 h 0,00 h 0,0 UV-I 0 W/m 0,1 km/h (0 Bft)
22.04.2013 23:00 10,4 C 8,1 C 58 % 1017,1 hPa 0,0 l/m 0,00 h 0,00 h 0,0 UV-I 0 W/m 0,5 km/h (0 Bft)
23.04.2013 00:00 10,0 C 8,4 C 68 % 1017,2 hPa 0,0 l/m 0,00 h 0,00 h 0,0 UV-I 0 W/m 1,5 km/h (1 Bft)
23.04.2013 01:00 10,3 C 9,0 C 71 % 1017,2 hPa 0,0 l/m 0,00 h 0,00 h 0,0 UV-I 0 W/m 3,6 km/h (1 Bft)
23.04.2013 02:00 10,3 C 9,0 C 72 % 1017,1 hPa 0,0 l/m 0,00 h 0,00 h 0,0 UV-I 0 W/m 3,6 km/h (1 Bft)
23.04.2013 03:00 10,2 C 9,0 C 72 % 1016,9 hPa 0,0 l/m 0,00 h 0,00 h 0,0 UV-I 0 W/m 4,8 km/h (1 Bft)
23.04.2013 04:00 9,9 C 8,4 C 73 % 1017,2 hPa 0,0 l/m 0,00 h 0,00 h 0,0 UV-I 0 W/m 4,7 km/h (1 Bft)
23.04.2013 05:00 9,8 C 8,6 C 74 % 1017,2 hPa 0,0 l/m 0,00 h 0,00 h 0,0 UV-I 0 W/m 6,9 km/h (2 Bft)
23.04.2013 06:00 9,9 C 9,0 C 75 % 1017,0 hPa 0,0 l/m 0,00 h 0,00 h 0,0 UV-I 9 W/m 11,8 km/h (2 Bft)
23.04.2013 07:00 10,2 C 9,3 C 76 % 1017,6 hPa 0,0 l/m 0,00 h 0,00 h 0,0 UV-I 31 W/m 9,4 km/h (2 Bft)
23.04.2013 08:00 10,7 C 10,1 C 77 % 1018,2 hPa 0,0 l/m 0,00 h 0,00 h 0,0 UV-I 72 W/m 10,6 km/h (2 Bft)
23.04.2013 09:00 10,7 C 10,2 C 85 % 1019,0 hPa 0,0 l/m 0,00 h 0,00 h 0,0 UV-I 104 W/m 12,2 km/h (2 Bft)
23.04.2013 10:00 10,8 C 11,0 C 89 % 1019,5 hPa 0,0 l/m 0,00 h 0,00 h 0,0 UV-I 141 W/m 10,6 km/h (2 Bft)
23.04.2013 11:00 11,5 C 11,6 C 86 % 1019,9 hPa 0,0 l/m 0,00 h 0,00 h 0,7 UV-I 146 W/m 12,8 km/h (3 Bft)
23.04.2013 12:00 13,1 C 14,2 C 82 % 1020,0 hPa 0,0 l/m 0,07 h 0,00 h 1,7 UV-I 285 W/m 11,7 km/h (2 Bft)
23.04.2013 13:00 14,0 C 14,0 C 78 % 1020,1 hPa 0,0 l/m 0,00 h 0,00 h 1,2 UV-I 172 W/m 12,6 km/h (3 Bft)
23.04.2013 14:00 13,9 C 14,2 C 80 % 1020,9 hPa 0,0 l/m 0,00 h 0,00 h 1,2 UV-I 203 W/m 12,4 km/h (3 Bft)
23.04.2013 15:00 13,8 C 13,1 C 79 % 1021,3 hPa 0,0 l/m 0,00 h 0,00 h 0,0 UV-I 81 W/m 9,9 km/h (2 Bft)
23.04.2013 16:00 14,0 C 14,2 C 78 % 1021,4 hPa 0,0 l/m 0,17 h 0,00 h 1,2 UV-I 229 W/m 9,6 km/h (2 Bft)
23.04.2013 17:00 15,8 C 15,5 C 69 % 1021,1 hPa 0,0 l/m 0,33 h 0,00 h 1,1 UV-I 289 W/m 8,2 km/h (2 Bft)
23.04.2013 18:00 15,7 C 15,2 C 69 % 1021,2 hPa 0,0 l/m 0,17 h 0,00 h 0,0 UV-I 156 W/m 7,2 km/h (2 Bft)
23.04.2013 19:00 15,1 C 13,5 C 69 % 1021,4 hPa 0,0 l/m 0,00 h 0,00 h 0,0 UV-I 42 W/m 3,7 km/h (1 Bft)
23.04.2013 20:00 14,3 C 11,5 C 71 % 1022,0 hPa 0,0 l/m 0,00 h 0,00 h 0,0 UV-I 13 W/m 0,4 km/h (0 Bft)
23.04.2013 21:00 13,3 C 10,7 C 77 % 1022,7 hPa 0,0 l/m 0,00 h 0,00 h 0,0 UV-I 0 W/m 0,1 km/h (0 Bft)
23.04.2013 22:00 12,1 C 8,9 C 81 % 1023,2 hPa 0,0 l/m 0,00 h 0,00 h 0,0 UV-I 0 W/m 0,0 km/h (0 Bft)
23.04.2013 23:00 11,1 C 8,9 C 85 % 1023,7 hPa 0,0 l/m 0,00 h 0,00 h 0,0 UV-I 0 W/m 0,4 km/h (0 Bft)
24.04.2013 00:00 10,1 C 7,3 C 86 % 1023,9 hPa 0,0 l/m 0,00 h 0,00 h 0,0 UV-I 0 W/m 0,0 km/h (0 Bft)
24.04.2013 01:00 8,9 C 6,4 C 88 % 1024,2 hPa 0,0 l/m 0,00 h 0,00 h 0,0 UV-I 0 W/m 0,0 km/h (0 Bft)
24.04.2013 02:00 7,9 C 5,6 C 90 % 1024,3 hPa 0,0 l/m 0,00 h 0,00 h 0,0 UV-I 0 W/m 0,0 km/h (0 Bft)
24.04.2013 03:00 7,2 C 5,1 C 92 % 1024,4 hPa 0,0 l/m 0,00 h 0,00 h 0,0 UV-I 0 W/m 0,0 km/h (0 Bft)
24.04.2013 04:00 6,9 C 4,9 C 95 % 1024,1 hPa 0,0 l/m 0,00 h 0,00 h 0,0 UV-I 0 W/m 0,0 km/h (0 Bft)
24.04.2013 05:00 6,3 C 4,3 C 95 % 1024,2 hPa 0,0 l/m 0,00 h 0,00 h 0,0 UV-I 0 W/m 0,0 km/h (0 Bft)
24.04.2013 06:00 5,9 C 4,5 C 96 % 1024,2 hPa 0,0 l/m 0,00 h 0,00 h 0,0 UV-I 15 W/m 0,9 km/h (0 Bft)
24.04.2013 07:00 6,6 C 5,9 C 98 % 1024,8 hPa 0,0 l/m 0,00 h 0,00 h 0,0 UV-I 36 W/m 1,7 km/h (1 Bft)
24.04.2013 08:00 8,2 C 8,1 C 99 % 1025,1 hPa 0,0 l/m 0,00 h 0,00 h 0,0 UV-I 52 W/m 5,8 km/h (2 Bft)
24.04.2013 09:00 12,0 C 14,0 C 91 % 1025,2 hPa 0,0 l/m 0,47 h 0,00 h 0,8 UV-I 237 W/m 2,2 km/h (1 Bft)
24.04.2013 10:00 16,3 C 20,9 C 71 % 1025,2 hPa 0,0 l/m 0,73 h 0,00 h 1,9 UV-I 374 W/m 8,2 km/h (2 Bft)
24.04.2013 11:00 18,1 C 20,2 C 65 % 1025,1 hPa 0,0 l/m 0,67 h 0,00 h 3,3 UV-I 499 W/m 13,4 km/h (3 Bft)
24.04.2013 12:00 19,5 C 24,4 C 61 % 1024,8 hPa 0,0 l/m 1,00 h 0,00 h 4,3 UV-I 718 W/m 16,0 km/h (3 Bft)
24.04.2013 13:00 20,8 C 23,6 C 56 % 1024,2 hPa 0,0 l/m 1,00 h 0,00 h 4,8 UV-I 756 W/m 15,3 km/h (3 Bft)
24.04.2013 14:00 21,8 C 22,2 C 54 % 1023,9 hPa 0,0 l/m 1,00 h 0,00 h 4,4 UV-I 741 W/m 15,1 km/h (3 Bft)
24.04.2013 15:00 22,9 C 22,4 C 51 % 1023,4 hPa 0,0 l/m 1,00 h 0,00 h 3,4 UV-I 670 W/m 13,0 km/h (3 Bft)
24.04.2013 16:00 23,6 C 22,3 C 50 % 1022,9 hPa 0,0 l/m 1,00 h 0,00 h 2,2 UV-I 565 W/m 12,3 km/h (3 Bft)
24.04.2013 17:00 23,7 C 22,0 C 49 % 1022,9 hPa 0,0 l/m 0,77 h 0,00 h 1,0 UV-I 371 W/m 12,4 km/h (3 Bft)
24.04.2013 18:00 22,8 C 20,0 C 51 % 1022,7 hPa 0,0 l/m 0,03 h 0,00 h 0,0 UV-I 112 W/m 9,5 km/h (2 Bft)
24.04.2013 19:00 21,8 C 19,7 C 55 % 1022,6 hPa 0,0 l/m 0,00 h 0,00 h 0,0 UV-I 73 W/m 7,1 km/h (2 Bft)
24.04.2013 20:00 20,6 C 17,1 C 58 % 1022,7 hPa 0,0 l/m 0,00 h 0,00 h 0,0 UV-I 14 W/m 1,1 km/h (1 Bft)
24.04.2013 21:00 18,6 C 14,2 C 63 % 1023,4 hPa 0,0 l/m 0,00 h 0,00 h 0,0 UV-I 0 W/m 0,0 km/h (0 Bft)
24.04.2013 22:00 16,8 C 12,9 C 70 % 1023,6 hPa 0,0 l/m 0,00 h 0,00 h 0,0 UV-I 0 W/m 0,0 km/h (0 Bft)
24.04.2013 23:00 15,6 C 12,8 C 75 % 1023,8 hPa 0,0 l/m 0,00 h 0,00 h 0,0 UV-I 0 W/m 0,0 km/h (0 Bft)
25.04.2013 00:00 14,9 C 11,4 C 78 % 1023,9 hPa 0,0 l/m 0,00 h 0,00 h 0,0 UV-I 0 W/m 0,0 km/h (0 Bft)
25.04.2013 01:00 13,5 C 10,3 C 83 % 1024,2 hPa 0,0 l/m 0,00 h 0,00 h 0,0 UV-I 0 W/m 0,0 km/h (0 Bft)
25.04.2013 02:00 12,4 C 9,7 C 87 % 1024,2 hPa 0,0 l/m 0,00 h 0,00 h 0,0 UV-I 0 W/m 0,0 km/h (0 Bft)
25.04.2013 03:00 11,4 C 8,8 C 88 % 1024,2 hPa 0,0 l/m 0,00 h 0,00 h 0,0 UV-I 0 W/m 0,0 km/h (0 Bft)
25.04.2013 04:00 10,6 C 8,2 C 90 % 1024,2 hPa 0,0 l/m 0,00 h 0,00 h 0,0 UV-I 0 W/m 0,0 km/h (0 Bft)
25.04.2013 05:00 9,8 C 7,6 C 91 % 1024,2 hPa 0,0 l/m 0,00 h 0,00 h 0,0 UV-I 0 W/m 0,0 km/h (0 Bft)
25.04.2013 06:00 9,3 C 7,5 C 93 % 1024,2 hPa 0,0 l/m 0,00 h 0,00 h 0,0 UV-I 13 W/m 0,0 km/h (0 Bft)
25.04.2013 07:00 9,8 C 9,8 C 97 % 1024,2 hPa 0,0 l/m 0,00 h 0,00 h 0,0 UV-I 28 W/m 0,0 km/h (0 Bft)
25.04.2013 08:00 11,1 C 11,9 C 98 % 1024,2 hPa 0,0 l/m 0,00 h 0,00 h 0,0 UV-I 77 W/m 0,7 km/h (0 Bft)
25.04.2013 09:00 13,1 C 14,6 C 95 % 1024,3 hPa 0,0 l/m 0,00 h 0,00 h 0,6 UV-I 163 W/m 3,6 km/h (1 Bft)
25.04.2013 10:00 16,0 C 17,8 C 83 % 1024,1 hPa 0,0 l/m 0,17 h 0,00 h 1,2 UV-I 266 W/m 8,1 km/h (2 Bft)
25.04.2013 11:00 18,6 C 20,0 C 74 % 1023,9 hPa 0,0 l/m 0,10 h 0,00 h 2,0 UV-I 314 W/m 4,0 km/h (1 Bft)
25.04.2013 12:00 20,1 C 22,0 C 68 % 1023,3 hPa 0,0 l/m 0,47 h 0,00 h 3,0 UV-I 445 W/m 5,2 km/h (1 Bft)
25.04.2013 13:00 22,9 C 25,8 C 61 % 1022,3 hPa 0,0 l/m 1,00 h 0,00 h 5,0 UV-I 773 W/m 7,7 km/h (2 Bft)
25.04.2013 14:00 24,5 C 24,9 C 56 % 1021,3 hPa 0,0 l/m 0,73 h 0,00 h 3,8 UV-I 585 W/m 8,5 km/h (2 Bft)
25.04.2013 15:00 25,2 C 25,0 C 53 % 1020,4 hPa 0,0 l/m 0,93 h 0,00 h 3,5 UV-I 658 W/m 10,2 km/h (2 Bft)
25.04.2013 16:00 26,1 C 24,8 C 48 % 1019,3 hPa 0,0 l/m 1,00 h 0,00 h 2,3 UV-I 573 W/m 9,9 km/h (2 Bft)
25.04.2013 17:00 26,5 C 24,3 C 45 % 1018,4 hPa 0,0 l/m 0,63 h 0,00 h 1,1 UV-I 347 W/m 5,6 km/h (1 Bft)
25.04.2013 18:00 25,4 C 23,3 C 47 % 1017,7 hPa 0,0 l/m 0,03 h 0,00 h 0,5 UV-I 122 W/m 2,5 km/h (1 Bft)
25.04.2013 19:00 24,7 C 22,6 C 48 % 1016,9 hPa 0,0 l/m 0,00 h 0,00 h 0,0 UV-I 74 W/m 2,2 km/h (1 Bft)
25.04.2013 20:00 23,6 C 19,9 C 51 % 1016,6 hPa 0,0 l/m 0,30 h 0,00 h 0,0 UV-I 27 W/m 0,5 km/h (0 Bft)
25.04.2013 21:00 21,5 C 16,2 C 58 % 1016,6 hPa 0,0 l/m 0,00 h 0,00 h 0,0 UV-I 0 W/m 0,0 km/h (0 Bft)
25.04.2013 22:00 19,0 C 14,3 C 67 % 1016,5 hPa 0,0 l/m 0,00 h 0,00 h 0,0 UV-I 0 W/m 0,0 km/h (0 Bft)
25.04.2013 23:00 16,9 C 13,4 C 72 % 1016,5 hPa 0,0 l/m 0,00 h 0,00 h 0,0 UV-I 0 W/m 0,5 km/h (0 Bft)
26.04.2013 00:00 15,8 C 12,3 C 74 % 1016,4 hPa 0,0 l/m 0,00 h 0,00 h 0,0 UV-I 0 W/m 0,0 km/h (0 Bft)
26.04.2013 01:00 14,6 C 11,3 C 80 % 1015,6 hPa 0,0 l/m 0,00 h 0,00 h 0,0 UV-I 0 W/m 0,0 km/h (0 Bft)
26.04.2013 02:00 13,4 C 10,6 C 85 % 1014,7 hPa 0,0 l/m 0,00 h 0,00 h 0,0 UV-I 0 W/m 0,0 km/h (0 Bft)
26.04.2013 03:00 12,4 C 9,8 C 89 % 1013,9 hPa 0,0 l/m 0,00 h 0,00 h 0,0 UV-I 0 W/m 0,0 km/h (0 Bft)
26.04.2013 04:00 11,6 C 9,2 C 91 % 1013,2 hPa 0,0 l/m 0,00 h 0,00 h 0,0 UV-I 0 W/m 0,0 km/h (0 Bft)
26.04.2013 05:00 11,2 C 9,0 C 93 % 1012,5 hPa 0,0 l/m 0,00 h 0,00 h 0,0 UV-I 0 W/m 0,3 km/h (0 Bft)
26.04.2013 06:00 11,8 C 10,6 C 93 % 1011,5 hPa 0,0 l/m 0,00 h 0,00 h 0,0 UV-I 13 W/m 7,6 km/h (2 Bft)
26.04.2013 07:00 12,8 C 12,0 C 90 % 1011,0 hPa 0,0 l/m 0,00 h 0,00 h 0,0 UV-I 54 W/m 6,3 km/h (2 Bft)
26.04.2013 08:00 14,0 C 13,8 C 87 % 1010,2 hPa 0,0 l/m 0,00 h 0,00 h 0,0 UV-I 95 W/m 6,5 km/h (2 Bft)
26.04.2013 09:00 15,4 C 15,3 C 82 % 1009,7 hPa 0,0 l/m 0,00 h 0,00 h 0,0 UV-I 104 W/m 0,6 km/h (0 Bft)
26.04.2013 10:00 16,0 C 15,8 C 81 % 1009,2 hPa 0,0 l/m 0,00 h 0,03 h 0,0 UV-I 117 W/m 0,1 km/h (0 Bft)
26.04.2013 11:00 17,2 C 18,2 C 75 % 1008,8 hPa 0,0 l/m 0,17 h 0,00 h 1,8 UV-I 273 W/m 8,6 km/h (2 Bft)
26.04.2013 12:00 17,6 C 18,2 C 76 % 1007,9 hPa 0,0 l/m 0,07 h 0,00 h 1,2 UV-I 270 W/m 12,2 km/h (2 Bft)
26.04.2013 13:00 15,6 C 15,5 C 83 % 1007,3 hPa 0,0 l/m 0,00 h 0,00 h 0,9 UV-I 194 W/m 15,0 km/h (3 Bft)
26.04.2013 14:00 13,8 C 12,8 C 86 % 1007,3 hPa 0,0 l/m 0,00 h 0,00 h 0,0 UV-I 65 W/m 20,9 km/h (4 Bft)
26.04.2013 15:00 11,2 C 9,7 C 92 % 1007,3 hPa 0,4 l/m 0,00 h 0,40 h 0,0 UV-I 32 W/m 22,1 km/h (4 Bft)
26.04.2013 16:00 9,1 C 7,5 C 94 % 1007,8 hPa 0,2 l/m 0,00 h 0,90 h 0,0 UV-I 25 W/m 28,0 km/h (4 Bft)
26.04.2013 17:00 7,6 C 6,2 C 95 % 1008,2 hPa 0,2 l/m 0,00 h 0,67 h 0,0 UV-I 24 W/m 27,8 km/h (4 Bft)
26.04.2013 18:00 7,4 C 6,1 C 96 % 1008,7 hPa 0,6 l/m 0,00 h 0,60 h 0,0 UV-I 15 W/m 16,7 km/h (3 Bft)
26.04.2013 19:00 7,2 C 5,7 C 96 % 1009,0 hPa 0,2 l/m 0,00 h 0,60 h 0,0 UV-I 10 W/m 14,1 km/h (3 Bft)
26.04.2013 20:00 6,9 C 5,7 C 96 % 1009,1 hPa 0,8 l/m 0,00 h 0,97 h 0,0 UV-I 5 W/m 11,4 km/h (2 Bft)
26.04.2013 21:00 6,5 C 5,1 C 96 % 1009,8 hPa 0,0 l/m 0,00 h 0,23 h 0,0 UV-I 0 W/m 9,4 km/h (2 Bft)
26.04.2013 22:00 6,5 C 5,5 C 97 % 1009,8 hPa 0,0 l/m 0,00 h 0,13 h 0,0 UV-I 0 W/m 3,3 km/h (1 Bft)
26.04.2013 23:00 6,5 C 5,2 C 97 % 1009,6 hPa 0,0 l/m 0,00 h 0,07 h 0,0 UV-I 0 W/m 4,9 km/h (1 Bft)
27.04.2013 00:00 6,4 C 5,1 C 97 % 1009,4 hPa 0,2 l/m 0,00 h 0,60 h 0,0 UV-I 0 W/m 4,3 km/h (1 Bft)
27.04.2013 01:00 6,2 C 5,1 C 97 % 1009,4 hPa 0,0 l/m 0,00 h 0,00 h 0,0 UV-I 0 W/m 3,7 km/h (1 Bft)
27.04.2013 02:00 6,0 C 5,0 C 97 % 1009,2 hPa 0,0 l/m 0,00 h 0,00 h 0,0 UV-I 0 W/m 5,1 km/h (1 Bft)
27.04.2013 03:00 6,0 C 5,0 C 97 % 1008,9 hPa 0,0 l/m 0,00 h 0,00 h 0,0 UV-I 0 W/m 4,5 km/h (1 Bft)
27.04.2013 04:00 5,9 C 4,9 C 96 % 1009,1 hPa 0,0 l/m 0,00 h 0,00 h 0,0 UV-I 0 W/m 13,0 km/h (3 Bft)
27.04.2013 05:00 5,4 C 4,3 C 94 % 1009,2 hPa 0,0 l/m 0,00 h 0,00 h 0,0 UV-I 0 W/m 15,0 km/h (3 Bft)
27.04.2013 06:00 5,0 C 4,0 C 93 % 1009,4 hPa 0,0 l/m 0,00 h 0,00 h 0,0 UV-I 13 W/m 14,3 km/h (3 Bft)
27.04.2013 07:00 4,8 C 4,1 C 92 % 1009,7 hPa 0,0 l/m 0,00 h 0,00 h 0,0 UV-I 61 W/m 16,3 km/h (3 Bft)
27.04.2013 08:00 5,1 C 4,9 C 90 % 1010,1 hPa 0,0 l/m 0,00 h 0,00 h 0,0 UV-I 121 W/m 16,3 km/h (3 Bft)
27.04.2013 09:00 5,9 C 6,0 C 86 % 1010,3 hPa 0,0 l/m 0,00 h 0,00 h 0,0 UV-I 181 W/m 15,3 km/h (3 Bft)
27.04.2013 10:00 6,6 C 7,0 C 81 % 1010,6 hPa 0,0 l/m 0,00 h 0,00 h 0,6 UV-I 222 W/m 16,6 km/h (3 Bft)
27.04.2013 11:00 7,5 C 8,3 C 77 % 1011,0 hPa 0,0 l/m 0,07 h 0,00 h 1,1 UV-I 296 W/m 16,9 km/h (3 Bft)
27.04.2013 12:00 8,4 C 10,1 C 72 % 1011,1 hPa 0,0 l/m 0,33 h 0,00 h 1,8 UV-I 442 W/m 20,5 km/h (4 Bft)
27.04.2013 13:00 9,2 C 10,5 C 67 % 1011,2 hPa 0,0 l/m 0,33 h 0,00 h 1,8 UV-I 395 W/m 20,9 km/h (4 Bft)
27.04.2013 14:00 9,3 C 9,9 C 67 % 1011,4 hPa 0,0 l/m 0,17 h 0,00 h 1,1 UV-I 322 W/m 18,7 km/h (3 Bft)
27.04.2013 15:00 9,7 C 10,2 C 64 % 1011,4 hPa 0,0 l/m 0,13 h 0,00 h 0,9 UV-I 274 W/m 17,6 km/h (3 Bft)
27.04.2013 16:00 9,7 C 9,9 C 63 % 1011,2 hPa 0,0 l/m 0,00 h 0,00 h 0,6 UV-I 224 W/m 19,0 km/h (3 Bft)
27.04.2013 17:00 10,1 C 9,9 C 61 % 1011,2 hPa 0,0 l/m 0,00 h 0,00 h 0,0 UV-I 178 W/m 17,4 km/h (3 Bft)
27.04.2013 18:00 9,8 C 9,2 C 63 % 1011,2 hPa 0,0 l/m 0,00 h 0,00 h 0,0 UV-I 97 W/m 18,6 km/h (3 Bft)
27.04.2013 19:00 9,4 C 8,5 C 64 % 1011,5 hPa 0,0 l/m 0,00 h 0,00 h 0,0 UV-I 48 W/m 19,0 km/h (3 Bft)
27.04.2013 20:00 9,0 C 7,7 C 66 % 1012,0 hPa 0,0 l/m 0,00 h 0,00 h 0,0 UV-I 13 W/m 9,7 km/h (2 Bft)
27.04.2013 21:00 8,4 C 7,0 C 70 % 1012,7 hPa 0,0 l/m 0,00 h 0,00 h 0,0 UV-I 0 W/m 11,6 km/h (2 Bft)
27.04.2013 22:00 7,5 C 6,0 C 76 % 1013,3 hPa 0,0 l/m 0,00 h 0,00 h 0,0 UV-I 0 W/m 6,7 km/h (2 Bft)
27.04.2013 23:00 6,7 C 5,5 C 79 % 1013,8 hPa 0,0 l/m 0,00 h 0,00 h 0,0 UV-I 0 W/m 8,9 km/h (2 Bft)
28.04.2013 00:00 5,9 C 4,6 C 81 % 1014,6 hPa 0,0 l/m 0,00 h 0,00 h 0,0 UV-I 0 W/m 11,1 km/h (2 Bft)
28.04.2013 01:00 5,3 C 3,9 C 84 % 1014,9 hPa 0,0 l/m 0,00 h 0,00 h 0,0 UV-I 0 W/m 11,0 km/h (2 Bft)
28.04.2013 02:00 4,3 C 2,9 C 87 % 1015,1 hPa 0,0 l/m 0,00 h 0,00 h 0,0 UV-I 0 W/m 5,8 km/h (2 Bft)
28.04.2013 03:00 3,4 C 1,8 C 89 % 1015,6 hPa 0,0 l/m 0,00 h 0,00 h 0,0 UV-I 0 W/m 1,5 km/h (1 Bft)
28.04.2013 04:00 2,4 C 0,8 C 90 % 1015,9 hPa 0,0 l/m 0,00 h 0,00 h 0,0 UV-I 0 W/m 0,8 km/h (0 Bft)
28.04.2013 05:00 1,7 C 0,1 C 92 % 1016,0 hPa 0,0 l/m 0,00 h 0,00 h 0,0 UV-I 0 W/m 0,7 km/h (0 Bft)
28.04.2013 06:00 1,0 C -0,5 C 92 % 1015,9 hPa 0,0 l/m 0,00 h 0,00 h 0,0 UV-I 16 W/m 0,3 km/h (0 Bft)
28.04.2013 07:00 1,8 C 1,9 C 95 % 1016,2 hPa 0,0 l/m 0,00 h 0,00 h 0,0 UV-I 62 W/m 3,5 km/h (1 Bft)
28.04.2013 08:00 3,6 C 3,7 C 94 % 1016,9 hPa 0,0 l/m 0,00 h 0,00 h 0,0 UV-I 88 W/m 7,8 km/h (2 Bft)
28.04.2013 09:00 5,7 C 8,4 C 85 % 1017,2 hPa 0,0 l/m 0,27 h 0,00 h 0,6 UV-I 210 W/m 4,3 km/h (1 Bft)
28.04.2013 10:00 8,2 C 13,0 C 71 % 1017,4 hPa 0,0 l/m 0,60 h 0,00 h 1,1 UV-I 377 W/m 5,2 km/h (1 Bft)
28.04.2013 11:00 9,9 C 14,2 C 63 % 1017,7 hPa 0,0 l/m 0,47 h 0,00 h 2,1 UV-I 386 W/m 5,0 km/h (1 Bft)
28.04.2013 12:00 11,3 C 16,7 C 55 % 1017,2 hPa 0,0 l/m 0,70 h 0,00 h 2,5 UV-I 668 W/m 7,1 km/h (2 Bft)
28.04.2013 13:00 12,6 C 14,9 C 45 % 1016,6 hPa 0,0 l/m 0,77 h 0,00 h 2,7 UV-I 706 W/m 8,1 km/h (2 Bft)
28.04.2013 14:00 13,4 C 14,0 C 42 % 1016,0 hPa 0,0 l/m 0,90 h 0,00 h 2,1 UV-I 543 W/m 7,3 km/h (2 Bft)
28.04.2013 15:00 13,7 C 14,9 C 41 % 1015,5 hPa 0,0 l/m 0,47 h 0,00 h 1,3 UV-I 413 W/m 5,4 km/h (1 Bft)
28.04.2013 16:00 13,7 C 13,9 C 41 % 1015,2 hPa 0,0 l/m 0,00 h 0,00 h 0,7 UV-I 245 W/m 6,5 km/h (2 Bft)
28.04.2013 17:00 12,9 C 12,1 C 46 % 1015,1 hPa 0,0 l/m 0,00 h 0,00 h 0,0 UV-I 110 W/m 4,9 km/h (1 Bft)
28.04.2013 18:00 11,8 C 10,6 C 53 % 1015,2 hPa 0,0 l/m 0,00 h 0,00 h 0,0 UV-I 36 W/m 4,6 km/h (1 Bft)
28.04.2013 19:00 11,0 C 9,8 C 65 % 1015,0 hPa 0,0 l/m 0,00 h 0,13 h 0,0 UV-I 41 W/m 3,3 km/h (1 Bft)
28.04.2013 20:00 10,5 C 9,5 C 71 % 1014,7 hPa 0,0 l/m 0,00 h 0,00 h 0,0 UV-I 18 W/m 1,8 km/h (1 Bft)
28.04.2013 21:00 10,2 C 8,9 C 73 % 1014,5 hPa 0,0 l/m 0,00 h 0,00 h 0,0 UV-I 0 W/m 2,5 km/h (1 Bft)
28.04.2013 22:00 9,6 C 7,5 C 76 % 1014,6 hPa 0,0 l/m 0,00 h 0,00 h 0,0 UV-I 0 W/m 1,5 km/h (1 Bft)
28.04.2013 23:00 8,5 C 6,7 C 80 % 1014,8 hPa 0,0 l/m 0,00 h 0,00 h 0,0 UV-I 0 W/m 1,1 km/h (1 Bft)
Min-Datum _ 28.04.13 28.04.13 22.04.13 26.04.13 - - - - - 22.04.13
_ Min-Zeit 06:38 06:10 17:10 13:16 - - - - - 00:00
Minimum _ 0,8 C -1,0 C 31 % 1007,1 hPa - - - - - 0,0 km/h (0 Bft)
Max-Datum _ 25.04.13 25.04.13 24.04.13 24.04.13 26.04.13 22.04.13 26.04.13 25.04.13 28.04.13 26.04.13
_ Max-Zeit 17:16 12:54 08:02 10:02 20:08 09:26 10:00 13:14 13:22 17:18
Maximum _ 26,8 C 27,9 C 99 % 1025,4 hPa 0,8 l/m 0,03 h 0,03 h 5,5 UV-I 979 W/m 46,3 km/h
N-NW (6 Bft)
Durchschnitt _ 12,0 C 11,2 C 74 % 1016,9 hPa #2,6 l/m #27:42 h #5:20 h 1,9 UV-I 239 W/m 6,7 km/h (2 Bft)
© 2013 W. Hausmann